Latest Weather Observations for Kadina

IDS60801

Issued at 9:31 pm CDT Friday 6 March 2015 (issued every 30 minutes, with the page automatically refreshed every 10 minutes)

About weather observations | Map of weather stations | Latest weather observations for SA | Other Formats
Station Details ID: 022050 Name: KADINA AWS Lat: -33.97 Lon: 137.66 Height: 41.14 m
Data from the previous 72 hours. | See also: Recent months at Kadina
Date/Time
CDT
Temp
°C
App
Temp
°C
Dew
Point
Rel
Hum
%
Delta-T
°C
Wind Press
QNH
hPa
Press
MSL
hPa
Rain
since 9 am
mm
Dir
 
Spd
km/h
Gust
km/h
Spd
kts
Gust
kts
06/09:30pm 16.5 14.5 12.8 79 2.1 SSW 15 20 8 11 1017.5 - 0.0
06/09:00pm 16.7 14.3 12.8 78 2.2 SSW 17 20 9 11 1017.0 1016.8 0.0
06/08:30pm 17.2 14.4 12.7 75 2.5 SSW 19 24 10 13 1016.8 - 0.0
06/08:00pm 17.8 14.5 12.7 72 2.8 SSW 22 28 12 15 1016.7 - 0.0
06/07:30pm 18.5 14.0 12.7 69 3.2 SW 28 37 15 20 1016.7 - 0.0
06/07:00pm 19.7 15.1 13.4 67 3.6 SW 30 39 16 21 1016.5 - 0.0
06/06:30pm 20.7 16.2 12.7 60 4.5 SW 28 37 15 20 1016.1 - 0.0
06/06:00pm 20.6 15.4 12.8 61 4.4 SW 32 41 17 22 1016.1 1015.9 0.0
06/05:30pm 21.3 16.1 12.7 58 4.9 SW 32 41 17 22 1016.2 - 0.0
06/05:00pm 21.4 15.9 12.3 56 5.1 WSW 33 43 18 23 1016.2 - 0.0
06/04:30pm 22.2 16.9 12.5 54 5.5 WSW 32 44 17 24 1016.4 - 0.0
06/04:00pm 22.4 17.4 12.1 52 5.8 WSW 30 39 16 21 1016.6 - 0.0
06/03:30pm 22.2 17.0 11.6 51 5.9 WSW 30 39 16 21 1016.8 - 0.0
06/03:00pm 23.9 19.9 10.6 43 7.4 SSW 22 33 12 18 1017.3 1017.1 0.0
06/02:30pm 23.5 19.5 10.6 44 7.1 SW 22 32 12 17 1017.7 - 0.0
06/02:00pm 22.4 18.4 10.5 47 6.5 SSW 22 33 12 18 1018.2 - 0.0
06/01:30pm 22.9 19.2 11.6 49 6.3 SSW 22 33 12 18 1018.8 - 0.0
06/01:00pm 22.9 18.5 11.6 49 6.3 S 26 37 14 20 1019.3 - 0.0
06/12:30pm 20.0 15.3 10.7 55 5.1 SSW 26 39 14 21 1019.8 - 0.0
06/12:00pm 20.1 16.2 10.8 55 5.1 S 22 35 12 19 1020.0 1019.8 0.0
06/11:30am 21.0 16.6 10.5 51 5.7 S 24 37 13 20 1020.0 - 0.0
06/11:00am 20.0 16.2 9.9 52 5.4 S 20 32 11 17 1020.3 - 0.0
06/10:30am 19.8 15.6 9.7 52 5.4 S 22 32 12 17 1020.4 - 0.0
06/10:00am 19.4 14.5 9.9 54 5.1 S 26 33 14 18 1020.4 - 0.0
06/09:30am 18.4 14.0 10.5 60 4.2 S 24 32 13 17 1020.3 - 0.0
06/09:00am 17.5 13.9 10.6 64 3.7 S 20 28 11 15 1020.4 1020.2 0.0
06/08:30am 15.9 13.9 10.2 69 3.0 SSE 11 17 6 9 1020.5 - 0.0
06/08:00am 14.4 12.6 9.6 73 2.5 SE 9 11 5 6 1020.6 - 0.0
06/07:30am 13.3 11.8 9.2 76 2.1 SE 7 9 4 5 1020.3 - 0.0
06/07:00am 12.8 10.5 8.9 77 2.0 SE 11 13 6 7 1019.9 - 0.0
06/06:30am 12.2 10.5 8.5 78 1.8 E 7 7 4 4 1020.0 - 0.0
06/06:00am 12.2 11.5 8.5 78 1.8 SE 2 7 1 4 1020.0 1019.8 0.0
06/05:30am 11.9 10.2 8.4 79 1.7 ESE 7 11 4 6 1020.0 - 0.0
06/05:00am 11.4 8.9 8.4 82 1.5 SE 11 13 6 7 1020.4 - 0.0
06/04:30am 9.9 7.7 7.7 86 1.1 SE 9 13 5 7 1020.4 - 0.0
06/04:00am 9.2 7.2 7.3 88 0.9 ESE 7 9 4 5 1020.5 - 0.0
06/03:30am 9.6 6.9 7.4 86 1.0 SSE 11 13 6 7 1020.9 - 0.0
06/03:00am 10.8 8.3 8.0 83 1.4 SSE 11 15 6 8 1021.2 1021.0 0.0
06/02:30am 11.5 8.8 8.9 84 1.3 SSE 13 17 7 9 1021.4 - 0.0
06/02:00am 8.2 5.5 5.8 85 1.1 SSE 9 13 5 7 1021.6 - 0.0
06/01:30am 9.1 6.6 6.4 83 1.3 SSE 9 13 5 7 1021.8 - 0.0
06/01:00am 10.8 7.7 7.3 79 1.7 SSE 13 15 7 8 1021.9 - 0.0
06/12:30am 10.8 8.1 7.5 80 1.6 SSE 11 13 6 7 1021.9 - 0.0
06/12:00am 10.6 7.8 7.1 79 1.7 S 11 13 6 7 1022.3 1022.1 0.0
 
Date/Time
CDT
Temp
°C
App
Temp
°C
Dew
Point
Rel
Hum
%
Delta-T
°C
Wind Press
QNH
hPa
Press
MSL
hPa
Rain
since 9 am
mm
Dir
 
Spd
km/h
Gust
km/h
Spd
kts
Gust
kts
05/11:30pm 12.2 9.2 7.5 73 2.3 SSE 13 17 7 9 1022.3 - 0.0
05/11:00pm 13.5 9.9 8.4 71 2.5 SSE 17 20 9 11 1022.6 - 0.0
05/10:30pm 14.0 10.7 8.2 68 2.9 SSE 15 20 8 11 1022.6 - 0.0
05/10:00pm 14.9 11.0 8.6 66 3.2 SSE 19 24 10 13 1022.6 - 0.0
05/09:30pm 14.9 12.1 9.9 72 2.6 SSE 15 19 8 10 1022.4 - 0.0
05/09:00pm 15.7 12.4 10.9 73 2.5 S 19 24 10 13 1022.1 1021.9 0.0
05/08:30pm 16.6 12.3 10.7 68 3.2 S 24 32 13 17 1021.7 - 0.0
05/08:00pm 17.4 11.9 10.5 64 3.7 S 30 39 16 21 1021.5 - 0.0
05/07:30pm 18.4 13.0 9.5 56 4.7 SSW 28 41 15 22 1021.2 - 0.0
05/07:00pm 19.7 13.5 9.3 51 5.5 SSW 32 44 17 24 1021.0 - 0.0
05/06:30pm 20.5 13.7 9.1 48 6.0 SSW 35 44 19 24 1020.5 - 0.0
05/06:00pm 22.2 15.5 8.0 40 7.4 SSW 33 44 18 24 1020.2 1020.0 0.0
05/05:30pm 23.7 16.9 6.9 34 8.7 SSW 32 50 17 27 1019.9 - 0.0
05/05:25pm 23.9 17.3 6.2 32 9.1 SSW 30 50 16 27 1019.8 - 0.0
05/05:00pm 24.1 18.7 4.5 28 9.8 SSE 22 32 12 17 1020.0 - 0.0
05/04:30pm 23.8 18.7 4.2 28 9.7 S 20 30 11 16 1020.3 - 0.0
05/04:00pm 23.9 18.6 4.8 29 9.5 S 22 32 12 17 1020.7 - 0.0
05/03:30pm 23.1 18.2 5.1 31 9.0 SSE 20 32 11 17 1021.1 - 0.0
05/03:00pm 23.2 18.3 5.1 31 9.0 SE 20 30 11 16 1021.3 1021.1 0.0
05/02:30pm 23.0 18.2 5.4 32 8.8 SE 20 30 11 16 1021.7 - 0.0
05/02:00pm 22.7 17.1 5.2 32 8.7 SE 24 32 13 17 1021.8 - 0.0
05/01:30pm 22.5 17.5 6.3 35 8.2 SSE 22 33 12 18 1022.4 - 0.0
05/01:00pm 22.6 17.8 7.2 37 8.0 SSE 22 41 12 22 1022.7 - 0.0
05/12:30pm 22.0 15.3 5.4 34 8.3 SSE 30 37 16 20 1022.9 - 0.0
05/12:00pm 21.1 15.0 6.6 39 7.3 SSE 28 43 15 23 1023.2 1023.0 0.0
05/11:30am 20.0 14.8 8.7 48 5.9 S 26 35 14 19 1023.4 - 0.0
05/11:00am 20.0 15.1 9.9 52 5.4 S 26 39 14 21 1023.5 - 0.0
05/10:30am 19.1 14.1 9.6 54 5.0 S 26 37 14 20 1023.4 - 0.0
05/10:00am 18.8 13.4 9.6 55 4.9 S 28 37 15 20 1023.1 - 0.0
05/09:30am 17.7 12.6 9.3 58 4.4 S 26 35 14 19 1022.9 - 0.0
05/09:00am 16.3 12.4 9.3 63 3.6 S 20 30 11 16 1022.4 1022.2 0.0
05/08:30am 15.3 11.9 9.2 67 3.1 S 17 22 9 12 1022.5 - 0.0
05/08:00am 14.7 11.1 9.7 72 2.6 S 19 24 10 13 1022.6 - 0.0
05/07:30am 14.5 10.8 10.1 75 2.3 S 20 24 11 13 1022.0 - 0.0
05/07:00am 15.0 11.4 10.4 74 2.4 S 20 30 11 16 1021.3 - 0.0
05/06:30am 15.8 12.1 11.4 75 2.4 S 22 30 12 16 1021.0 - 0.0
05/06:00am 16.1 12.2 12.1 77 2.2 S 24 33 13 18 1020.9 1020.7 0.0
05/05:30am 15.9 14.1 13.4 85 1.4 S 15 22 8 12 1020.5 - 0.0
05/05:00am 15.7 13.6 13.5 87 1.2 S 17 20 9 11 1020.3 - 0.0
05/04:30am 16.0 13.6 13.7 86 1.3 S 19 26 10 14 1020.1 - 0.0
05/04:00am 16.3 13.4 14.1 87 1.3 S 22 41 12 22 1019.8 - 0.0
05/03:30am 16.5 14.3 15.0 91 0.9 S 20 28 11 15 1019.9 - 0.0
05/03:00am 16.8 15.0 14.4 86 1.4 S 17 24 9 13 1020.1 1019.9 0.0
05/02:30am 16.7 14.1 13.2 80 2.0 S 19 28 10 15 1020.3 - 0.0
05/02:00am 17.3 13.3 14.2 82 1.8 SSW 28 44 15 24 1020.5 - 0.0
05/01:30am 18.5 14.9 13.1 71 3.0 SSW 24 32 13 17 1020.3 - 0.0
05/01:00am 18.6 15.7 14.1 75 2.6 SW 22 30 12 16 1020.5 - 0.0
05/12:30am 19.3 16.1 13.0 67 3.6 SW 22 32 12 17 1020.3 - 0.0
05/12:00am 18.2 15.7 12.4 69 3.2 SW 17 22 9 12 1020.1 1019.9 0.0
 
Date/Time
CDT
Temp
°C
App
Temp
°C
Dew
Point
Rel
Hum
%
Delta-T
°C
Wind Press
QNH
hPa
Press
MSL
hPa
Rain
since 9 am
mm
Dir
 
Spd
km/h
Gust
km/h
Spd
kts
Gust
kts
04/11:30pm 19.0 14.6 13.0 68 3.4 SW 28 39 15 21 1020.1 - 0.0
04/11:00pm 19.2 15.6 11.7 62 4.1 SSW 22 32 12 17 1020.0 - 0.0
04/10:30pm 19.1 14.2 11.4 61 4.2 SSW 28 35 15 19 1020.0 - 0.0
04/10:00pm 19.0 14.0 12.3 65 3.7 SSW 30 39 16 21 1020.1 - 0.0
04/09:30pm 19.1 15.4 12.8 67 3.5 SSW 24 33 13 18 1020.1 - 0.0
04/09:00pm 19.1 15.0 12.6 66 3.6 SSW 26 35 14 19 1019.4 1019.2 0.0
04/08:30pm 18.3 14.4 12.1 67 3.4 SSW 24 33 13 18 1018.8 - 0.0
04/08:00pm 18.5 15.0 12.3 67 3.4 SSW 22 32 12 17 1018.7 - 0.0
04/07:30pm 19.1 14.8 11.9 63 4.0 SSW 26 35 14 19 1018.4 - 0.0
04/07:00pm 19.5 14.5 11.0 58 4.6 SSW 28 39 15 21 1018.0 - 0.0
04/06:30pm 21.1 15.8 11.4 54 5.4 SSW 30 41 16 22 1017.9 - 0.0
04/06:00pm 22.0 17.3 12.0 53 5.6 SSW 28 43 15 23 1017.8 1017.6 0.0
04/05:30pm 21.5 16.7 11.5 53 5.6 SSW 28 39 15 21 1017.7 - 0.0
04/05:00pm 22.9 17.4 10.7 46 6.7 SSW 30 41 16 22 1017.4 - 0.0
04/04:30pm 23.1 17.8 9.8 43 7.2 SW 28 35 15 19 1017.6 - 0.0
04/04:00pm 22.7 16.4 9.1 42 7.3 SSW 32 41 17 22 1017.8 - 0.0
04/03:30pm 21.8 16.0 10.9 50 6.0 SW 32 44 17 24 1018.3 - 0.0
04/03:00pm 22.1 16.2 10.6 48 6.3 SW 32 46 17 25 1018.3 1018.1 0.0
04/02:43pm 22.7 17.4 11.4 49 6.3 SW 30 52 16 28 1018.5 - 0.0
04/02:30pm 21.9 16.0 10.4 48 6.3 WSW 32 43 17 23 1018.7 - 0.0
04/02:00pm 21.9 16.4 10.4 48 6.3 WSW 30 43 16 23 1018.7 - 0.0
04/01:30pm 21.8 17.0 10.3 48 6.3 WSW 26 35 14 19 1018.8 - 0.0
04/01:00pm 22.8 18.1 10.6 46 6.7 SW 26 37 14 20 1018.7 - 0.0
04/12:30pm 22.3 17.9 10.5 47 6.5 SW 24 32 13 17 1019.3 - 0.0
04/12:00pm 22.1 19.0 8.9 43 7.0 SSW 15 24 8 13 1019.5 1019.3 0.0
04/11:30am 21.8 18.9 9.7 46 6.5 SSW 15 26 8 14 1019.9 - 0.0
04/11:00am 21.3 18.2 10.2 49 6.0 S 17 30 9 16 1020.1 - 0.0
04/10:30am 20.1 17.0 10.2 53 5.3 S 17 24 9 13 1020.2 - 0.0
04/10:00am 20.9 17.5 10.7 52 5.6 S 19 28 10 15 1020.1 - 0.0
04/09:30am 19.6 15.6 10.6 56 4.9 S 22 30 12 16 1019.9 - 0.0
04/09:00am 18.2 14.7 10.3 60 4.2 S 19 24 10 13 1019.6 1019.4 0.0
04/08:30am 16.7 13.0 10.1 65 3.5 S 20 26 11 14 1019.4 - 0.0
04/08:00am 15.2 12.1 10.2 72 2.6 S 17 20 9 11 1019.2 - 0.0
04/07:30am 14.1 11.4 10.5 79 1.9 S 15 19 8 10 1019.0 - 0.0
04/07:00am 13.6 10.9 10.2 80 1.8 S 15 19 8 10 1018.7 - 0.0
04/06:30am 14.5 11.9 10.7 78 2.0 S 15 17 8 9 1018.7 - 0.0
04/06:00am 15.2 12.7 11.2 77 2.1 S 15 19 8 10 1018.6 1018.4 0.0
04/05:30am 15.6 13.2 11.4 76 2.3 S 15 20 8 11 1018.2 - 0.0
04/05:00am 16.0 13.3 11.8 76 2.3 S 17 20 9 11 1018.1 - 0.0
04/04:30am 16.1 13.5 11.9 76 2.3 S 17 20 9 11 1017.8 - 0.0
04/04:00am 15.9 13.5 11.5 75 2.4 S 15 17 8 9 1017.8 - 0.0
04/03:30am 16.5 14.2 11.6 73 2.7 S 15 19 8 10 1018.1 - 0.0
04/03:00am 16.6 13.8 11.5 72 2.8 S 17 20 9 11 1017.7 1017.5 0.0
04/02:30am 16.8 14.4 11.5 71 2.9 S 15 20 8 11 1018.3 - 0.0
04/02:00am 17.2 14.6 11.9 71 2.9 SSE 17 22 9 12 1019.0 - 0.0
04/01:30am 17.7 14.8 12.2 70 3.0 SSE 19 24 10 13 1019.2 - 0.0
04/01:00am 17.9 15.0 12.4 70 3.1 SSE 19 26 10 14 1018.8 - 0.0
04/12:30am 18.0 14.8 12.0 68 3.3 S 20 26 11 14 1018.9 - 0.0
04/12:00am 18.1 14.9 11.9 67 3.4 SSE 20 24 11 13 1018.6 1018.4 0.0
 
Date/Time
CDT
Temp
°C
App
Temp
°C
Dew
Point
Rel
Hum
%
Delta-T
°C
Wind Press
QNH
hPa
Press
MSL
hPa
Rain
since 9 am
mm
Dir
 
Spd
km/h
Gust
km/h
Spd
kts
Gust
kts
03/11:30pm 18.3 15.1 11.8 66 3.6 SSE 20 28 11 15 1018.9 - 0.0
03/11:00pm 18.7 15.0 11.5 63 4.0 SSE 22 32 12 17 1018.9 - 0.0
03/10:30pm 18.9 15.4 11.0 60 4.3 SSE 20 26 11 14 1019.0 - 0.0
03/10:00pm 19.2 15.2 10.5 57 4.7 SSE 22 28 12 15 1018.6 - 0.0

Other Formats:

Comma delimited format used in spreadsheet applications
http://www.bom.gov.au/fwo/IDS60801/IDS60801.94685.axf

JavaScript Object Notation format (JSON) in row-major order
http://www.bom.gov.au/fwo/IDS60801/IDS60801.94685.json